createdAt,value
2019-02-05T00:01:22.980Z,57.69
2019-02-05T00:03:49.264Z,58.54
2019-02-05T00:06:15.664Z,59.24
2019-02-05T00:08:41.836Z,59.90
2019-02-05T00:11:07.994Z,60.17
2019-02-05T00:13:34.298Z,59.42
2019-02-05T00:16:00.585Z,59.63
2019-02-05T00:18:26.766Z,60.06
2019-02-05T00:20:52.967Z,60.55
2019-02-05T00:23:19.142Z,60.42
2019-02-05T00:25:45.319Z,60.69
2019-02-05T00:28:11.503Z,60.59
2019-02-05T00:30:37.780Z,60.06
2019-02-05T00:33:05.117Z,60.62
2019-02-05T00:35:31.325Z,59.50
2019-02-05T00:37:57.490Z,59.89
2019-02-05T00:40:23.667Z,58.74
2019-02-05T00:42:49.966Z,58.21
2019-02-05T00:45:17.742Z,57.71
2019-02-05T00:47:44.002Z,58.73
2019-02-05T00:50:12.417Z,58.01
2019-02-05T00:52:38.579Z,58.43
2019-02-05T00:55:08.362Z,59.38
2019-02-05T00:57:34.675Z,59.36
2019-02-05T01:00:00.952Z,58.98
2019-02-05T01:02:27.171Z,59.65
2019-02-05T01:04:53.688Z,59.95
2019-02-05T01:07:19.959Z,60.28
2019-02-05T01:09:46.134Z,60.24
2019-02-05T01:12:12.334Z,61.73
2019-02-05T01:14:38.497Z,60.54
2019-02-05T01:17:04.772Z,60.89
2019-02-05T01:19:30.965Z,62.70
2019-02-05T01:21:58.069Z,62.85
2019-02-05T01:24:24.858Z,60.86
2019-02-05T01:26:51.069Z,61.11
2019-02-05T01:29:17.227Z,61.01
2019-02-05T01:31:43.498Z,60.61
2019-02-05T01:34:09.795Z,59.90
2019-02-05T01:36:35.950Z,58.66
2019-02-05T01:39:04.226Z,58.72
2019-02-05T01:41:30.928Z,59.27
2019-02-05T01:43:57.107Z,60.98
2019-02-05T01:46:23.267Z,61.33
2019-02-05T01:48:49.454Z,62.26
2019-02-05T01:51:17.615Z,61.71
2019-02-05T01:53:46.425Z,61.87
2019-02-05T01:56:12.622Z,62.88
2019-02-05T01:58:38.789Z,62.66
2019-02-05T02:01:05.657Z,63.07
2019-02-05T02:03:32.016Z,64.42
2019-02-05T02:05:58.286Z,65.15
2019-02-05T02:08:24.451Z,65.98
2019-02-05T02:10:50.750Z,65.87
2019-02-05T02:13:17.010Z,64.94
2019-02-05T02:15:43.280Z,64.77
2019-02-05T02:18:09.471Z,65.34
2019-02-05T02:20:36.249Z,66.66
2019-02-05T02:23:02.513Z,68.62
2019-02-05T02:25:28.813Z,70.17
2019-02-05T02:27:55.081Z,71.00
2019-02-05T02:30:27.518Z,70.46
2019-02-05T02:32:53.806Z,70.06
2019-02-05T02:35:19.962Z,69.28
2019-02-05T02:37:46.128Z,70.27
2019-02-05T02:40:12.329Z,70.01
2019-02-05T02:42:38.583Z,70.10
2019-02-05T02:45:08.356Z,70.56
2019-02-05T02:47:34.549Z,71.20
2019-02-05T02:50:00.713Z,71.13
2019-02-05T02:52:26.876Z,70.42
2019-02-05T02:54:53.178Z,70.33
2019-02-05T02:57:21.144Z,69.70
2019-02-05T02:59:47.308Z,69.51
2019-02-05T03:02:13.607Z,70.81
2019-02-05T03:04:39.828Z,69.83
2019-02-05T03:07:06.097Z,69.28
2019-02-05T03:09:32.416Z,69.05
2019-02-05T03:11:58.700Z,69.07
2019-02-05T03:14:24.981Z,68.84
2019-02-05T03:16:51.201Z,69.10
2019-02-05T03:19:17.889Z,68.80
2019-02-05T03:21:44.277Z,68.78
2019-02-05T03:24:10.569Z,69.13
2019-02-05T03:26:36.847Z,69.44
2019-02-05T03:29:03.312Z,70.34
2019-02-05T03:31:29.522Z,69.93
2019-02-05T03:33:55.812Z,69.48
2019-02-05T03:36:22.085Z,70.09
2019-02-05T03:38:48.266Z,69.95
2019-02-05T03:41:14.426Z,69.91
2019-02-05T03:43:41.187Z,69.47
2019-02-05T03:46:08.671Z,69.52
2019-02-05T03:48:36.245Z,71.91
2019-02-05T03:51:08.880Z,71.83
2019-02-05T03:53:41.571Z,71.54
2019-02-05T03:56:23.419Z,71.96
2019-02-05T03:59:08.337Z,71.64
2019-02-05T04:01:53.083Z,70.51
2019-02-05T04:04:55.846Z,69.86
2019-02-05T04:07:28.749Z,68.65
2019-02-05T04:10:24.894Z,67.71
2019-02-05T04:13:14.438Z,68.05
2019-02-05T04:15:56.602Z,68.47
2019-02-05T04:18:29.443Z,68.04
2019-02-05T04:21:11.332Z,67.77
2019-02-05T04:23:47.252Z,67.60
2019-02-05T04:26:37.891Z,66.93
2019-02-05T04:29:44.026Z,66.90
2019-02-05T04:32:28.967Z,66.90
2019-02-05T04:35:22.786Z,66.60
2019-02-05T04:38:04.975Z,67.81
2019-02-05T04:41:06.725Z,68.71
2019-02-05T04:43:57.131Z,68.92
2019-02-05T04:46:43.922Z,68.93
2019-02-05T04:49:29.132Z,68.38
2019-02-05T04:52:15.627Z,68.25
2019-02-05T04:54:52.522Z,68.46
2019-02-05T04:57:57.069Z,67.73
2019-02-05T05:00:27.194Z,68.18
2019-02-05T05:03:02.730Z,68.98
2019-02-05T05:05:44.726Z,69.36
2019-02-05T05:08:35.757Z,69.17
2019-02-05T05:11:01.949Z,68.52
2019-02-05T05:13:28.712Z,68.04
2019-02-05T05:15:54.880Z,70.79
2019-02-05T05:18:21.079Z,70.79
2019-02-05T05:20:47.450Z,71.83
2019-02-05T05:23:15.148Z,71.62
2019-02-05T05:25:41.674Z,70.39
2019-02-05T05:28:10.282Z,69.80
2019-02-05T05:30:38.107Z,71.23
2019-02-05T05:33:04.418Z,69.98
2019-02-05T05:35:41.681Z,69.64
2019-02-05T05:37:59.249Z,69.37
2019-02-05T05:40:25.571Z,68.57
2019-02-05T05:42:51.741Z,68.29
2019-02-05T05:45:17.911Z,67.88
2019-02-05T05:47:44.120Z,67.47
2019-02-05T05:50:12.997Z,67.68
2019-02-05T05:52:39.271Z,67.63
2019-02-05T05:55:06.073Z,66.91
2019-02-05T05:57:32.550Z,66.69
2019-02-05T05:59:58.709Z,66.88
2019-02-05T06:02:25.064Z,66.67
2019-02-05T06:04:51.329Z,66.57
2019-02-05T06:07:17.610Z,66.62
2019-02-05T06:09:44.248Z,66.51
2019-02-05T06:12:10.420Z,66.86
2019-02-05T06:14:36.588Z,67.44
2019-02-05T06:17:03.284Z,66.76
2019-02-05T06:19:29.446Z,66.36
2019-02-05T06:21:55.712Z,65.75
2019-02-05T06:24:22.104Z,65.96
2019-02-05T06:26:48.279Z,66.81
2019-02-05T06:29:14.458Z,66.61
2019-02-05T06:31:41.023Z,66.15
2019-02-05T06:34:07.347Z,65.67
2019-02-05T06:36:33.613Z,65.95
2019-02-05T06:39:00.178Z,66.21
2019-02-05T06:41:26.335Z,66.88
2019-02-05T06:43:52.487Z,66.54
2019-02-05T06:46:18.793Z,66.22
2019-02-05T06:48:44.966Z,66.27
2019-02-05T06:51:11.229Z,65.99
2019-02-05T06:53:37.680Z,65.75
2019-02-05T06:56:03.847Z,65.73
2019-02-05T06:58:30.006Z,65.09
2019-02-05T07:00:56.601Z,64.35
2019-02-05T07:03:22.775Z,64.23
2019-02-05T07:05:49.050Z,63.82
2019-02-05T07:08:15.400Z,64.78
2019-02-05T07:10:43.579Z,66.10
2019-02-05T07:13:09.822Z,67.24
2019-02-05T07:15:36.006Z,65.93
2019-02-05T07:18:02.279Z,65.30
2019-02-05T07:20:28.528Z,65.03
2019-02-05T07:22:55.766Z,64.74
2019-02-05T07:25:22.174Z,64.88
2019-02-05T07:27:49.567Z,64.47
2019-02-05T07:30:26.219Z,64.06
2019-02-05T07:32:52.391Z,63.95
2019-02-05T07:35:18.662Z,63.83
2019-02-05T07:37:44.951Z,63.35
2019-02-05T07:40:14.820Z,63.63
2019-02-05T07:42:40.979Z,63.87
2019-02-05T07:45:10.592Z,63.52
2019-02-05T07:47:37.908Z,62.30
2019-02-05T07:50:07.687Z,61.70
2019-02-05T07:52:34.004Z,61.71
2019-02-05T07:55:00.355Z,61.53
2019-02-05T07:57:26.540Z,60.10
2019-02-05T07:59:52.735Z,60.27
2019-02-05T08:02:19.302Z,60.37
2019-02-05T08:04:45.561Z,60.13
2019-02-05T08:07:11.776Z,59.73
2019-02-05T08:09:37.987Z,59.92
2019-02-05T08:12:04.274Z,60.79
2019-02-05T08:14:30.589Z,61.83
2019-02-05T08:16:56.743Z,62.31
2019-02-05T08:19:22.897Z,63.65
2019-02-05T08:21:49.105Z,66.38
2019-02-05T08:24:15.818Z,66.21
2019-02-05T08:26:42.181Z,65.50
2019-02-05T08:29:08.845Z,66.29
2019-02-05T08:31:35.120Z,66.78
2019-02-05T08:34:03.360Z,66.71
2019-02-05T08:36:29.483Z,66.99
2019-02-05T08:38:55.849Z,67.17
2019-02-05T08:41:22.040Z,67.21
2019-02-05T08:43:48.474Z,67.58
2019-02-05T08:46:14.706Z,66.33
2019-02-05T08:48:40.912Z,66.33
2019-02-05T08:51:07.508Z,66.69
2019-02-05T08:53:33.693Z,65.52
2019-02-05T08:55:59.992Z,65.15
2019-02-05T08:58:31.252Z,65.85
2019-02-05T09:00:54.252Z,65.15
2019-02-05T09:03:20.428Z,63.79
2019-02-05T09:05:46.794Z,64.88
2019-02-05T09:08:13.093Z,64.11
2019-02-05T09:10:41.167Z,64.99
2019-02-05T09:13:08.122Z,65.00
2019-02-05T09:15:34.298Z,63.70
2019-02-05T09:18:00.653Z,63.13
2019-02-05T09:20:26.875Z,63.88
2019-02-05T09:22:53.131Z,63.84
2019-02-05T09:25:19.801Z,64.33
2019-02-05T09:27:46.103Z,65.12
2019-02-05T09:30:27.971Z,66.71
2019-02-05T09:32:56.570Z,65.61
2019-02-05T09:35:23.398Z,66.12
2019-02-05T09:37:49.663Z,66.94
2019-02-05T09:40:22.197Z,66.13
2019-02-05T09:42:48.467Z,66.64
2019-02-05T09:45:16.433Z,66.85
2019-02-05T09:47:43.111Z,69.45
2019-02-05T09:50:14.881Z,68.70
2019-02-05T09:52:41.167Z,66.62
2019-02-05T09:55:10.360Z,66.00
2019-02-05T09:57:36.615Z,65.38
2019-02-05T10:00:06.486Z,65.21
2019-02-05T10:02:32.688Z,65.24
2019-02-05T10:04:58.863Z,65.51
2019-02-05T10:07:25.028Z,65.59
2019-02-05T10:09:51.732Z,64.50
2019-02-05T10:12:17.919Z,64.42
2019-02-05T10:14:44.251Z,63.60
2019-02-05T10:17:10.594Z,63.81
2019-02-05T10:19:38.667Z,64.30
2019-02-05T10:22:05.068Z,64.68
2019-02-05T10:24:31.369Z,64.24
2019-02-05T10:26:57.541Z,64.38
2019-02-05T10:29:25.540Z,66.00
2019-02-05T10:31:52.143Z,65.15
2019-02-05T10:34:18.438Z,65.49
2019-02-05T10:36:44.645Z,65.93
2019-02-05T10:39:12.332Z,65.76
2019-02-05T10:41:38.687Z,64.07
2019-02-05T10:44:05.409Z,64.41
2019-02-05T10:46:31.660Z,63.25
2019-02-05T10:48:57.830Z,62.56
2019-02-05T10:51:24.097Z,62.50
2019-02-05T10:53:50.696Z,64.25
2019-02-05T10:56:16.971Z,64.98
2019-02-05T10:58:43.132Z,64.12
2019-02-05T11:01:09.425Z,62.73
2019-02-05T11:03:35.686Z,62.73
2019-02-05T11:06:01.963Z,61.57
2019-02-05T11:08:28.164Z,63.78
2019-02-05T11:10:54.315Z,64.06
2019-02-05T11:13:20.478Z,64.10
2019-02-05T11:15:47.291Z,63.51
2019-02-05T11:18:13.552Z,62.39
2019-02-05T11:20:39.706Z,60.97
2019-02-05T11:23:06.000Z,61.58
2019-02-05T11:25:32.670Z,60.92
2019-02-05T11:27:58.845Z,61.98
2019-02-05T11:30:28.154Z,61.62
2019-02-05T11:32:54.341Z,62.31
2019-02-05T11:35:20.626Z,62.72
2019-02-05T11:37:47.521Z,59.86
2019-02-05T11:40:20.280Z,60.09
2019-02-05T11:42:46.543Z,60.70
2019-02-05T11:45:20.941Z,60.28
2019-02-05T11:47:48.261Z,59.61
2019-02-05T11:50:16.641Z,59.65
2019-02-05T11:52:42.981Z,59.31
2019-02-05T11:55:12.548Z,60.75
2019-02-05T11:57:38.718Z,60.20
2019-02-05T12:00:08.670Z,60.34
2019-02-05T12:02:34.832Z,59.65
2019-02-05T12:05:01.004Z,58.16
2019-02-05T12:07:27.210Z,56.79
2019-02-05T12:09:53.416Z,57.02
2019-02-05T12:12:22.683Z,60.28
2019-02-05T12:14:50.420Z,59.64
2019-02-05T12:17:17.587Z,58.24
2019-02-05T12:19:44.053Z,57.91
2019-02-05T12:22:10.481Z,58.45
2019-02-05T12:24:36.758Z,57.79
2019-02-05T12:27:02.940Z,58.18
2019-02-05T12:29:29.138Z,58.07
2019-02-05T12:31:55.406Z,57.87
2019-02-05T12:34:21.701Z,58.04
2019-02-05T12:36:47.969Z,58.54
2019-02-05T12:39:15.924Z,57.92
2019-02-05T12:41:42.090Z,58.53
2019-02-05T12:44:08.399Z,57.99
2019-02-05T12:46:34.682Z,59.21
2019-02-05T12:49:00.846Z,59.85
2019-02-05T12:51:27.201Z,59.35
2019-02-05T12:53:53.521Z,58.87
2019-02-05T12:56:19.745Z,59.30
2019-02-05T12:58:46.551Z,59.98
2019-02-05T13:01:12.822Z,60.04
2019-02-05T13:03:39.093Z,61.40
2019-02-05T13:06:05.700Z,61.09
2019-02-05T13:08:31.879Z,60.36
2019-02-05T13:10:58.203Z,59.41
2019-02-05T13:13:24.364Z,59.77
2019-02-05T13:15:53.333Z,60.39
2019-02-05T13:18:20.189Z,60.04
2019-02-05T13:20:48.123Z,59.98
2019-02-05T13:23:14.272Z,59.11
2019-02-05T13:25:40.447Z,59.44
2019-02-05T13:28:08.454Z,59.54
2019-02-05T13:30:36.026Z,59.85
2019-02-05T13:33:05.968Z,60.60
2019-02-05T13:35:32.575Z,62.36
2019-02-05T13:37:58.849Z,62.62
2019-02-05T13:40:26.797Z,62.71
2019-02-05T13:42:53.094Z,61.50
2019-02-05T13:45:22.259Z,63.32
2019-02-05T13:47:48.424Z,63.45
2019-02-05T13:50:19.778Z,62.67
2019-02-05T13:52:47.832Z,62.94
2019-02-05T13:55:17.204Z,63.39
2019-02-05T13:57:43.508Z,64.76
2019-02-05T14:00:13.490Z,64.06
2019-02-05T14:02:39.773Z,65.60
2019-02-05T14:05:08.981Z,68.42
2019-02-05T14:07:35.151Z,68.36
2019-02-05T14:10:05.315Z,67.07
2019-02-05T14:12:33.840Z,69.06
2019-02-05T14:15:00.242Z,69.87
2019-02-05T14:17:26.703Z,68.59
2019-02-05T14:19:54.030Z,69.41
2019-02-05T14:22:20.196Z,69.34
2019-02-05T14:24:46.354Z,69.46
2019-02-05T14:27:13.265Z,68.88
2019-02-05T14:29:41.687Z,68.78
2019-02-05T14:32:07.857Z,68.46
2019-02-05T14:34:34.146Z,69.02
2019-02-05T14:37:00.398Z,68.89
2019-02-05T14:39:26.763Z,68.56
2019-02-05T14:41:53.065Z,68.09
2019-02-05T14:44:19.330Z,68.20
2019-02-05T14:46:46.000Z,68.52
2019-02-05T14:49:12.429Z,68.51
2019-02-05T14:51:38.697Z,69.53
2019-02-05T14:54:04.966Z,69.43
2019-02-05T14:56:31.187Z,69.39
2019-02-05T14:58:57.557Z,68.55
2019-02-05T15:01:23.712Z,69.08
2019-02-05T15:03:50.009Z,70.17
2019-02-05T15:06:16.169Z,70.95
2019-02-05T15:08:44.482Z,71.10
2019-02-05T15:11:10.674Z,71.13
2019-02-05T15:13:42.358Z,72.04
2019-02-05T15:16:08.649Z,70.82
2019-02-05T15:18:34.952Z,70.73
2019-02-05T15:21:01.258Z,72.47
2019-02-05T15:23:27.632Z,70.36
2019-02-05T15:25:53.828Z,70.39
2019-02-05T15:28:20.040Z,70.71
2019-02-05T15:30:46.285Z,70.26
2019-02-05T15:33:24.141Z,70.62
2019-02-05T15:35:52.218Z,70.09
2019-02-05T15:38:18.475Z,69.49
2019-02-05T15:40:45.505Z,69.90
2019-02-05T15:43:11.659Z,69.03
2019-02-05T15:45:37.937Z,69.50
2019-02-05T15:48:04.349Z,70.07
2019-02-05T15:50:30.523Z,69.52
2019-02-05T15:52:56.716Z,68.79
2019-02-05T15:55:22.979Z,69.08
2019-02-05T15:57:49.251Z,68.73
2019-02-05T16:00:20.425Z,69.47
2019-02-05T16:02:46.716Z,69.08
2019-02-05T16:05:13.777Z,69.45
2019-02-05T16:07:40.042Z,69.06
2019-02-05T16:10:09.853Z,69.79
2019-02-05T16:12:36.125Z,69.64
2019-02-05T16:15:03.614Z,69.49
2019-02-05T16:17:30.242Z,69.29
2019-02-05T16:19:56.400Z,69.03
2019-02-05T16:22:22.734Z,70.02
2019-02-05T16:24:48.937Z,70.53
2019-02-05T16:27:15.101Z,70.87
2019-02-05T16:29:41.264Z,71.39
2019-02-05T16:32:17.283Z,70.27
2019-02-05T16:34:35.521Z,70.74
2019-02-05T16:37:01.779Z,70.79
2019-02-05T16:39:28.076Z,71.22
2019-02-05T16:41:54.241Z,71.79
2019-02-05T16:44:20.408Z,71.79
2019-02-05T16:46:46.601Z,71.52
2019-02-05T16:49:12.763Z,71.31
2019-02-05T16:51:38.934Z,71.73
2019-02-05T16:54:05.132Z,71.46
2019-02-05T16:56:31.394Z,73.27
2019-02-05T16:58:57.655Z,72.52
2019-02-05T17:01:23.961Z,71.90
2019-02-05T17:03:50.230Z,71.42
2019-02-05T17:06:16.499Z,71.20
2019-02-05T17:08:42.694Z,71.79
2019-02-05T17:11:08.860Z,72.96
2019-02-05T17:13:35.118Z,75.41
2019-02-05T17:16:01.307Z,74.32
2019-02-05T17:18:28.068Z,75.22
2019-02-05T17:20:54.325Z,75.99
2019-02-05T17:23:21.556Z,75.17
2019-02-05T17:25:47.708Z,73.54
2019-02-05T17:28:14.233Z,73.23
2019-02-05T17:30:40.535Z,72.93
2019-02-05T17:33:07.032Z,73.62
2019-02-05T17:35:35.384Z,73.55
2019-02-05T17:38:01.702Z,72.79
2019-02-05T17:40:27.879Z,71.96
2019-02-05T17:42:54.436Z,72.17
2019-02-05T17:45:26.266Z,73.75
2019-02-05T17:47:52.511Z,74.76
2019-02-05T17:50:18.671Z,73.67
2019-02-05T17:52:44.868Z,73.44
2019-02-05T17:55:13.521Z,73.17
2019-02-05T17:57:39.784Z,72.37
2019-02-05T18:00:09.598Z,71.63
2019-02-05T18:02:35.759Z,71.82
2019-02-05T18:05:04.139Z,73.54
2019-02-05T18:07:30.427Z,72.94
2019-02-05T18:09:57.408Z,72.70
2019-02-05T18:12:23.676Z,74.09
2019-02-05T18:14:50.181Z,72.52
2019-02-05T18:17:16.338Z,72.23
2019-02-05T18:19:42.501Z,72.13
2019-02-05T18:22:08.794Z,73.37
2019-02-05T18:24:35.117Z,73.84
2019-02-05T18:27:01.285Z,74.33
2019-02-05T18:29:36.718Z,75.20
2019-02-05T18:32:03.577Z,74.45
2019-02-05T18:34:29.771Z,74.60
2019-02-05T18:36:55.983Z,75.23
2019-02-05T18:39:22.254Z,73.72
2019-02-05T18:41:48.511Z,73.32
2019-02-05T18:44:14.711Z,72.32
2019-02-05T18:46:40.869Z,72.23
2019-02-05T18:49:08.304Z,73.09
2019-02-05T18:51:35.234Z,73.35
2019-02-05T18:54:01.395Z,72.03
2019-02-05T18:56:27.561Z,72.73
2019-02-05T18:58:53.776Z,72.94
2019-02-05T19:01:20.086Z,73.95
2019-02-05T19:03:46.315Z,73.90
2019-02-05T19:06:12.613Z,73.37
2019-02-05T19:08:38.773Z,72.78
2019-02-05T19:11:05.341Z,71.58
2019-02-05T19:13:31.525Z,71.06
2019-02-05T19:15:57.685Z,71.64
2019-02-05T19:18:24.311Z,72.29
2019-02-05T19:20:50.505Z,71.26
2019-02-05T19:23:16.661Z,69.94
2019-02-05T19:25:44.927Z,70.10
2019-02-05T19:28:13.013Z,69.71
2019-02-05T19:30:44.328Z,70.59
2019-02-05T19:33:10.598Z,70.41
2019-02-05T19:35:36.876Z,71.85
2019-02-05T19:38:05.411Z,72.09
2019-02-05T19:40:32.608Z,71.30
2019-02-05T19:42:58.808Z,70.80
2019-02-05T19:45:43.522Z,71.52
2019-02-05T19:48:28.299Z,72.61
2019-02-05T19:50:55.139Z,73.00
2019-02-05T19:53:21.411Z,71.69
2019-02-05T19:55:48.111Z,70.69
2019-02-05T19:58:14.266Z,70.69
2019-02-05T20:00:40.432Z,71.82
2019-02-05T20:03:06.729Z,71.55
2019-02-05T20:05:33.115Z,71.93
2019-02-05T20:07:59.373Z,72.16
2019-02-05T20:10:25.677Z,72.37
2019-02-05T20:12:51.847Z,72.51
2019-02-05T20:15:19.742Z,72.04
2019-02-05T20:17:46.299Z,71.48
2019-02-05T20:20:14.387Z,71.00
2019-02-05T20:22:40.552Z,70.88
2019-02-05T20:25:10.469Z,71.07
2019-02-05T20:27:36.723Z,70.63
2019-02-05T20:30:20.958Z,70.65
2019-02-05T20:32:47.545Z,70.29
2019-02-05T20:35:13.716Z,69.75
2019-02-05T20:37:40.092Z,69.54
2019-02-05T20:40:13.247Z,70.26
2019-02-05T20:42:39.516Z,70.24
2019-02-05T20:45:08.701Z,70.20
2019-02-05T20:47:34.866Z,70.23
2019-02-05T20:50:01.033Z,70.01
2019-02-05T20:52:27.320Z,69.60
2019-02-05T20:54:53.485Z,70.71
2019-02-05T20:57:19.647Z,69.88
2019-02-05T20:59:46.132Z,69.71
2019-02-05T21:02:12.600Z,69.90
2019-02-05T21:04:47.887Z,69.15
2019-02-05T21:07:07.242Z,67.57
2019-02-05T21:09:33.408Z,68.50
2019-02-05T21:11:59.564Z,68.74
2019-02-05T21:14:25.853Z,69.19
2019-02-05T21:16:52.018Z,68.78
2019-02-05T21:19:18.292Z,68.19
2019-02-05T21:21:44.888Z,68.01
2019-02-05T21:24:11.046Z,69.31
2019-02-05T21:26:37.302Z,69.69
2019-02-05T21:29:03.885Z,69.65
2019-02-05T21:31:30.054Z,71.17
2019-02-05T21:33:56.249Z,71.62
2019-02-05T21:36:22.539Z,71.89
2019-02-05T21:38:48.709Z,71.57
2019-02-05T21:41:14.862Z,70.73
2019-02-05T21:43:41.449Z,71.93
2019-02-05T21:46:07.608Z,72.44
2019-02-05T21:48:33.867Z,72.09
2019-02-05T21:51:00.156Z,71.63
2019-02-05T21:53:26.310Z,71.12
2019-02-05T21:55:52.464Z,71.96
2019-02-05T21:58:18.658Z,71.93
2019-02-05T22:00:44.979Z,71.58
2019-02-05T22:03:11.182Z,70.77
2019-02-05T22:05:38.437Z,71.26
2019-02-05T22:08:04.999Z,71.96
2019-02-05T22:10:31.346Z,73.23
2019-02-05T22:12:57.806Z,72.24
2019-02-05T22:15:24.463Z,72.42
2019-02-05T22:17:50.616Z,71.50
2019-02-05T22:20:21.999Z,72.95
2019-02-05T22:22:48.158Z,72.70
2019-02-05T22:25:17.020Z,72.98
2019-02-05T22:27:43.218Z,73.47
2019-02-05T22:30:13.648Z,73.72
2019-02-05T22:32:40.299Z,74.21
2019-02-05T22:35:07.003Z,73.27
2019-02-05T22:37:33.160Z,72.91
2019-02-05T22:39:59.322Z,71.30
2019-02-05T22:42:25.514Z,71.74
2019-02-05T22:44:52.062Z,71.83
2019-02-05T22:47:18.318Z,71.42
2019-02-05T22:49:44.611Z,71.30
2019-02-05T22:52:10.760Z,71.82
2019-02-05T22:54:36.927Z,73.14
2019-02-05T22:57:03.418Z,73.04
2019-02-05T22:59:30.148Z,72.96
2019-02-05T23:01:56.846Z,72.50
2019-02-05T23:04:26.743Z,74.30
2019-02-05T23:06:56.608Z,73.25
2019-02-05T23:09:29.167Z,72.50
2019-02-05T23:12:20.142Z,72.57
2019-02-05T23:14:52.682Z,72.83
2019-02-05T23:17:18.930Z,71.95
2019-02-05T23:19:45.187Z,71.19
2019-02-05T23:22:11.370Z,71.28
2019-02-05T23:24:37.527Z,70.65
2019-02-05T23:27:03.681Z,70.28
2019-02-05T23:29:29.978Z,72.30
2019-02-05T23:31:57.255Z,72.98
2019-02-05T23:34:23.423Z,73.55
2019-02-05T23:36:49.612Z,73.64
2019-02-05T23:39:15.764Z,71.83
2019-02-05T23:41:41.922Z,71.09
2019-02-05T23:44:08.112Z,70.84
2019-02-05T23:46:34.272Z,70.59
2019-02-05T23:49:00.568Z,71.05
2019-02-05T23:51:26.738Z,70.90
2019-02-05T23:53:53.200Z,70.80
2019-02-05T23:56:25.641Z,70.08
2019-02-05T23:58:47.564Z,69.41
